createdAt,value
2022-09-11T00:00:56.236Z,97838.44
2022-09-11T00:04:03.813Z,97835.81
2022-09-11T00:07:10.911Z,97830.31
2022-09-11T00:10:17.864Z,97840.84
2022-09-11T00:13:26.050Z,97832.00
2022-09-11T00:16:37.391Z,97844.41
2022-09-11T00:19:44.226Z,97838.78
2022-09-11T00:22:53.571Z,97847.28
2022-09-11T00:26:06.889Z,97849.75
2022-09-11T00:29:13.220Z,97850.31
2022-09-11T00:32:22.845Z,97850.78
2022-09-11T00:35:29.591Z,97857.44
2022-09-11T00:38:38.782Z,97853.38
2022-09-11T00:41:47.071Z,97853.38
2022-09-11T00:45:04.212Z,97858.19
2022-09-11T00:48:17.208Z,97857.56
2022-09-11T00:51:29.194Z,97856.00
2022-09-11T00:54:39.147Z,97847.28
2022-09-11T00:57:49.725Z,97860.34
2022-09-11T01:00:58.399Z,97855.28
2022-09-11T01:04:11.876Z,97855.28
2022-09-11T01:07:18.678Z,97848.34
2022-09-11T01:10:34.844Z,97845.34
2022-09-11T01:13:47.037Z,97851.59
2022-09-11T01:16:57.807Z,97846.41
2022-09-11T01:20:31.353Z,97848.97
2022-09-11T01:24:09.471Z,97846.41
2022-09-11T01:27:42.551Z,97844.84
2022-09-11T01:30:56.800Z,97845.84
2022-09-11T01:34:09.598Z,97836.38
2022-09-11T01:37:25.333Z,97836.38
2022-09-11T01:40:41.275Z,97830.97
2022-09-11T01:43:56.949Z,97830.13
2022-09-11T01:47:07.196Z,97825.84
2022-09-11T01:50:15.662Z,97822.03
2022-09-11T01:53:26.343Z,97833.25
2022-09-11T01:56:36.763Z,97821.78
2022-09-11T01:59:49.412Z,97828.00
2022-09-11T02:03:03.643Z,97826.44
2022-09-11T02:06:16.187Z,97821.31
2022-09-11T02:09:27.613Z,97828.13
2022-09-11T02:12:45.329Z,97823.72
2022-09-11T02:16:08.849Z,97827.50
2022-09-11T02:19:18.933Z,97822.25
2022-09-11T02:22:24.902Z,97821.44
2022-09-11T02:25:32.016Z,97827.28
2022-09-11T02:28:38.142Z,97820.09
2022-09-11T02:31:49.811Z,97826.84
2022-09-11T02:34:57.979Z,97811.88
2022-09-11T02:38:15.042Z,97812.72
2022-09-11T02:41:31.272Z,97816.31
2022-09-11T02:44:44.947Z,97821.56
2022-09-11T02:48:06.972Z,97816.09
2022-09-11T02:51:24.411Z,97807.00
2022-09-11T02:54:36.187Z,97813.31
2022-09-11T02:57:49.009Z,97810.19
2022-09-11T03:00:56.688Z,97809.59
2022-09-11T03:04:07.009Z,97806.44
2022-09-11T03:07:13.133Z,97819.13
2022-09-11T03:10:20.160Z,97809.31
2022-09-11T03:13:26.204Z,97798.56
2022-09-11T03:16:33.848Z,97807.19
2022-09-11T03:19:42.879Z,97798.47
2022-09-11T03:22:50.412Z,97795.72
2022-09-11T03:25:57.974Z,97798.56
2022-09-11T03:29:08.727Z,97801.94
2022-09-11T03:32:16.412Z,97803.31
2022-09-11T03:35:26.232Z,97807.66
2022-09-11T03:38:33.240Z,97813.63
2022-09-11T03:41:41.228Z,97812.56
2022-09-11T03:44:47.569Z,97796.56
2022-09-11T03:47:54.328Z,97809.00
2022-09-11T03:51:05.950Z,97800.47
2022-09-11T03:54:13.358Z,97800.81
2022-09-11T03:57:19.625Z,97800.19
2022-09-11T04:00:27.519Z,97800.44
2022-09-11T04:03:36.286Z,97802.34
2022-09-11T04:06:46.049Z,97801.28
2022-09-11T04:09:52.516Z,97810.00
2022-09-11T04:12:59.411Z,97799.94
2022-09-11T04:16:10.536Z,97804.09
2022-09-11T04:19:22.013Z,97806.81
2022-09-11T04:22:30.769Z,97809.72
2022-09-11T04:25:38.936Z,97809.38
2022-09-11T04:28:46.879Z,97807.38
2022-09-11T04:31:55.244Z,97808.09
2022-09-11T04:35:08.779Z,97808.59
2022-09-11T04:38:27.314Z,97814.84
2022-09-11T04:41:33.371Z,97819.53
2022-09-11T04:44:42.427Z,97817.78
2022-09-11T04:47:48.913Z,97817.19
2022-09-11T04:51:03.809Z,97816.75
2022-09-11T04:54:17.047Z,97821.41
2022-09-11T04:57:25.004Z,97811.56
2022-09-11T05:00:31.176Z,97822.91
2022-09-11T05:03:39.658Z,97810.34
2022-09-11T05:06:48.538Z,97821.09
2022-09-11T05:09:59.723Z,97812.03
2022-09-11T05:13:06.967Z,97824.47
2022-09-11T05:16:16.037Z,97815.13
2022-09-11T05:19:22.551Z,97814.88
2022-09-11T05:22:29.810Z,97811.31
2022-09-11T05:25:40.285Z,97805.69
2022-09-11T05:28:47.168Z,97808.59
2022-09-11T05:31:53.450Z,97809.19
2022-09-11T05:35:03.476Z,97815.28
2022-09-11T05:38:11.055Z,97807.66
2022-09-11T05:41:21.172Z,97811.16
2022-09-11T05:44:27.636Z,97811.16
2022-09-11T05:47:35.140Z,97809.34
2022-09-11T05:50:41.731Z,97811.41
2022-09-11T05:53:50.477Z,97808.91
2022-09-11T05:56:59.373Z,97816.47
2022-09-11T06:00:08.217Z,97809.75
2022-09-11T06:03:17.034Z,97813.78
2022-09-11T06:06:25.962Z,97820.97
2022-09-11T06:09:32.806Z,97820.97
2022-09-11T06:12:42.549Z,97819.81
2022-09-11T06:15:49.485Z,97827.50
2022-09-11T06:18:57.685Z,97817.66
2022-09-11T06:22:04.349Z,97819.09
2022-09-11T06:25:18.611Z,97813.84
2022-09-11T06:28:27.849Z,97818.63
2022-09-11T06:31:34.779Z,97828.44
2022-09-11T06:34:41.080Z,97825.34
2022-09-11T06:37:51.299Z,97824.63
2022-09-11T06:41:00.320Z,97836.34
2022-09-11T06:44:15.508Z,97840.59
2022-09-11T06:47:21.519Z,97845.97
2022-09-11T06:50:28.460Z,97844.38
2022-09-11T06:53:42.796Z,97843.16
2022-09-11T06:56:52.034Z,97837.84
2022-09-11T07:00:01.036Z,97826.44
2022-09-11T07:03:17.097Z,97838.50
2022-09-11T07:06:24.869Z,97835.38
2022-09-11T07:09:32.153Z,97845.91
2022-09-11T07:12:39.073Z,97835.38
2022-09-11T07:15:49.968Z,97837.66
2022-09-11T07:18:56.616Z,97840.88
2022-09-11T07:22:03.702Z,97840.44
2022-09-11T07:25:11.458Z,97841.16
2022-09-11T07:28:21.507Z,97844.41
2022-09-11T07:31:34.711Z,97847.91
2022-09-11T07:34:41.685Z,97847.91
2022-09-11T07:37:50.933Z,97854.94
2022-09-11T07:41:00.330Z,97844.28
2022-09-11T07:44:08.248Z,97851.25
2022-09-11T07:47:18.104Z,97856.06
2022-09-11T07:50:28.119Z,97839.69
2022-09-11T07:53:38.230Z,97854.41
2022-09-11T07:56:44.431Z,97858.16
2022-09-11T07:59:52.401Z,97863.44
2022-09-11T08:03:04.151Z,97859.50
2022-09-11T08:06:21.919Z,97858.91
2022-09-11T08:09:31.482Z,97861.47
2022-09-11T08:12:40.482Z,97861.50
2022-09-11T08:15:50.587Z,97867.97
2022-09-11T08:19:03.891Z,97863.91
2022-09-11T08:22:10.473Z,97861.03
2022-09-11T08:25:24.176Z,97864.97
2022-09-11T08:28:30.465Z,97870.25
2022-09-11T08:31:38.098Z,97862.94
2022-09-11T08:34:49.797Z,97860.53
2022-09-11T08:37:57.353Z,97863.28
2022-09-11T08:41:15.367Z,97868.44
2022-09-11T08:44:27.268Z,97867.22
2022-09-11T08:47:43.228Z,97872.16
2022-09-11T08:50:52.721Z,97874.66
2022-09-11T08:53:59.262Z,97870.06
2022-09-11T08:57:20.054Z,97867.19
2022-09-11T09:00:30.413Z,97863.00
2022-09-11T09:04:06.873Z,97868.19
2022-09-11T09:07:27.959Z,97867.19
2022-09-11T09:10:50.419Z,97869.16
2022-09-11T09:14:32.756Z,97866.25
2022-09-11T09:17:45.661Z,97879.66
2022-09-11T09:21:03.553Z,97884.69
2022-09-11T09:24:22.374Z,97867.66
2022-09-11T09:27:40.093Z,97868.84
2022-09-11T09:30:53.972Z,97876.53
2022-09-11T09:34:04.522Z,97871.78
2022-09-11T09:37:19.617Z,97868.66
2022-09-11T09:40:31.272Z,97878.84
2022-09-11T09:43:49.928Z,97886.88
2022-09-11T09:46:59.676Z,97872.09
2022-09-11T09:50:08.537Z,97881.34
2022-09-11T09:53:21.664Z,97878.28
2022-09-11T09:56:35.425Z,97885.66
2022-09-11T09:59:46.768Z,97886.22
2022-09-11T10:02:56.993Z,97885.44
2022-09-11T10:06:03.535Z,97882.59
2022-09-11T10:09:21.964Z,97886.66
2022-09-11T10:12:31.915Z,97885.13
2022-09-11T10:15:43.352Z,97885.38
2022-09-11T10:18:49.896Z,97895.56
2022-09-11T10:21:57.669Z,97893.25
2022-09-11T10:25:15.707Z,97886.72
2022-09-11T10:28:32.671Z,97896.19
2022-09-11T10:31:42.152Z,97893.47
2022-09-11T10:34:49.020Z,97891.00
2022-09-11T10:38:13.924Z,97896.63
2022-09-11T10:41:24.200Z,97893.03
2022-09-11T10:44:33.193Z,97883.44
2022-09-11T10:47:40.605Z,97892.81
2022-09-11T10:50:46.583Z,97878.34
2022-09-11T10:54:14.193Z,97883.72
2022-09-11T10:57:25.529Z,97883.47
2022-09-11T11:00:36.413Z,97884.72
2022-09-11T11:03:42.241Z,97877.81
2022-09-11T11:07:07.034Z,97871.38
2022-09-11T11:10:26.177Z,97882.25
2022-09-11T11:13:51.828Z,97878.81
2022-09-11T11:17:16.664Z,97871.28
2022-09-11T11:20:34.523Z,97885.75
2022-09-11T11:23:54.126Z,97877.97
2022-09-11T11:27:17.462Z,97886.59
2022-09-11T11:30:25.201Z,97874.09
2022-09-11T11:33:50.697Z,97896.94
2022-09-11T11:37:03.728Z,97875.91
2022-09-11T11:40:18.580Z,97880.13
2022-09-11T11:43:29.870Z,97887.13
2022-09-11T11:46:42.254Z,97880.97
2022-09-11T11:50:03.888Z,97883.38
2022-09-11T11:53:21.712Z,97880.03
2022-09-11T11:56:35.457Z,97893.97
2022-09-11T11:59:49.937Z,97892.59
2022-09-11T12:03:06.042Z,97882.00
2022-09-11T12:06:15.955Z,97898.19
2022-09-11T12:09:22.076Z,97898.03
2022-09-11T12:12:34.106Z,97890.25
2022-09-11T12:15:40.301Z,97885.09
2022-09-11T12:19:07.846Z,97882.88
2022-09-11T12:22:18.314Z,97887.31
2022-09-11T12:26:07.313Z,97886.63
2022-09-11T12:29:53.287Z,97895.13
2022-09-11T12:33:04.049Z,97875.03
2022-09-11T12:36:13.126Z,97886.22
2022-09-11T12:39:29.687Z,97900.16
2022-09-11T12:43:20.687Z,97875.59
2022-09-11T12:47:16.735Z,97856.84
2022-09-11T12:50:25.754Z,97869.69
2022-09-11T12:53:37.274Z,97855.44
2022-09-11T12:56:50.773Z,97853.91
2022-09-11T13:00:04.219Z,97875.16
2022-09-11T13:03:20.651Z,97864.66
2022-09-11T13:06:38.995Z,97873.63
2022-09-11T13:09:50.061Z,97877.53
2022-09-11T13:12:59.978Z,97876.69
2022-09-11T13:16:22.188Z,97860.22
2022-09-11T13:19:36.026Z,97867.06
2022-09-11T13:22:42.482Z,97880.34
2022-09-11T13:25:52.240Z,97863.88
2022-09-11T13:29:03.545Z,97915.53
2022-09-11T13:32:13.418Z,97873.38
2022-09-11T13:35:22.750Z,97893.44
2022-09-11T13:38:35.143Z,97871.97
2022-09-11T13:41:45.301Z,97884.97
2022-09-11T13:44:57.793Z,97865.00
2022-09-11T13:48:03.652Z,97865.56
2022-09-11T13:51:15.599Z,97869.78
2022-09-11T13:54:30.826Z,97870.28
2022-09-11T13:57:52.954Z,97859.13
2022-09-11T14:01:14.518Z,97853.53
2022-09-11T14:04:21.539Z,97852.75
2022-09-11T14:07:29.706Z,97852.16
2022-09-11T14:10:41.737Z,97864.09
2022-09-11T14:13:52.136Z,97887.31
2022-09-11T14:17:03.866Z,97856.09
2022-09-11T14:20:20.466Z,97868.59
2022-09-11T14:23:30.694Z,97866.53
2022-09-11T14:26:44.707Z,97876.84
2022-09-11T14:29:56.957Z,97864.13
2022-09-11T14:33:19.536Z,97860.53
2022-09-11T14:36:26.446Z,97876.94
2022-09-11T14:39:37.269Z,97905.72
2022-09-11T14:42:46.089Z,97923.44
2022-09-11T14:45:54.922Z,97893.91
2022-09-11T14:49:08.398Z,97897.66
2022-09-11T14:52:17.107Z,97898.16
2022-09-11T14:55:24.088Z,97904.88
2022-09-11T14:58:31.837Z,97911.25
2022-09-11T15:01:38.751Z,97913.25
2022-09-11T15:04:47.460Z,97894.22
2022-09-11T15:07:54.276Z,97896.00
2022-09-11T15:11:00.278Z,97902.97
2022-09-11T15:14:20.705Z,97906.09
2022-09-11T15:17:39.319Z,97907.50
2022-09-11T15:20:49.448Z,97903.34
2022-09-11T15:23:55.565Z,97909.94
2022-09-11T15:27:04.080Z,97911.59
2022-09-11T15:30:11.666Z,97907.03
2022-09-11T15:33:18.489Z,97908.00
2022-09-11T15:36:31.394Z,97914.94
2022-09-11T15:39:38.621Z,97925.75
2022-09-11T15:42:45.422Z,97918.78
2022-09-11T15:45:53.105Z,97911.00
2022-09-11T15:49:03.554Z,97929.56
2022-09-11T15:52:13.576Z,97937.25
2022-09-11T15:55:19.731Z,97940.50
2022-09-11T15:58:27.244Z,97932.22
2022-09-11T16:01:35.693Z,97933.53
2022-09-11T16:04:42.631Z,97944.19
2022-09-11T16:07:52.043Z,97940.63
2022-09-11T16:11:03.889Z,97944.19
2022-09-11T16:14:11.197Z,97944.81
2022-09-11T16:17:20.963Z,97950.31
2022-09-11T16:20:27.530Z,97955.59
2022-09-11T16:23:39.483Z,97949.72
2022-09-11T16:26:45.837Z,97955.25
2022-09-11T16:30:20.625Z,97953.31
2022-09-11T16:33:18.939Z,97948.88
2022-09-11T16:36:25.996Z,97984.97
2022-09-11T16:39:34.772Z,97964.09
2022-09-11T16:42:41.463Z,97973.22
2022-09-11T16:45:54.124Z,97956.91
2022-09-11T16:49:01.924Z,97972.81
2022-09-11T16:52:08.976Z,97968.63
2022-09-11T16:55:20.258Z,97973.91
2022-09-11T16:58:26.675Z,97972.25
2022-09-11T17:01:33.699Z,97987.44
2022-09-11T17:04:40.199Z,97980.59
2022-09-11T17:07:47.766Z,97986.59
2022-09-11T17:10:58.404Z,97991.00
2022-09-11T17:14:08.505Z,97993.78
2022-09-11T17:17:14.376Z,97995.69
2022-09-11T17:20:21.206Z,97995.94
2022-09-11T17:23:27.337Z,97999.50
2022-09-11T17:26:37.507Z,98009.19
2022-09-11T17:29:44.719Z,98017.25
2022-09-11T17:32:52.074Z,98031.34
2022-09-11T17:35:57.956Z,98017.47
2022-09-11T17:39:07.011Z,98023.81
2022-09-11T17:42:16.025Z,98035.41
2022-09-11T17:45:23.353Z,98039.00
2022-09-11T17:48:29.445Z,98042.59
2022-09-11T17:51:36.427Z,98046.53
2022-09-11T17:54:42.527Z,98044.97
2022-09-11T17:57:55.212Z,98051.41
2022-09-11T18:01:03.813Z,98043.75
2022-09-11T18:04:10.696Z,98033.38
2022-09-11T18:07:16.761Z,98030.97
2022-09-11T18:10:23.828Z,98046.06
2022-09-11T18:13:34.938Z,98054.19
2022-09-11T18:16:44.221Z,98039.31
2022-09-11T18:19:50.403Z,98043.88
2022-09-11T18:22:57.151Z,98041.34
2022-09-11T18:26:03.967Z,98051.97
2022-09-11T18:29:15.933Z,98050.31
2022-09-11T18:32:21.842Z,98034.72
2022-09-11T18:35:28.710Z,98042.63
2022-09-11T18:38:35.134Z,98046.13
2022-09-11T18:41:42.737Z,98045.28
2022-09-11T18:44:51.639Z,98041.66
2022-09-11T18:48:00.092Z,98043.34
2022-09-11T18:51:09.920Z,98050.31
2022-09-11T18:54:18.079Z,98047.44
2022-09-11T18:57:24.819Z,98051.75
2022-09-11T19:00:35.027Z,98055.13
2022-09-11T19:03:44.438Z,98061.00
2022-09-11T19:06:51.428Z,98057.44
2022-09-11T19:09:57.777Z,98070.50
2022-09-11T19:13:06.633Z,98063.31
2022-09-11T19:16:16.904Z,98068.34
2022-09-11T19:19:24.224Z,98070.09
2022-09-11T19:22:32.215Z,98063.75
2022-09-11T19:25:39.267Z,98062.91
2022-09-11T19:28:47.395Z,98070.59
2022-09-11T19:31:56.929Z,98076.78
2022-09-11T19:35:04.129Z,98085.53
2022-09-11T19:38:10.954Z,98085.66
2022-09-11T19:41:19.514Z,98085.66
2022-09-11T19:44:26.480Z,98079.44
2022-09-11T19:47:35.201Z,98079.44
2022-09-11T19:50:46.404Z,98080.41
2022-09-11T19:53:53.052Z,98087.47
2022-09-11T19:57:00.342Z,98085.00
2022-09-11T20:00:09.104Z,98093.00
2022-09-11T20:03:18.963Z,98087.97
2022-09-11T20:06:26.306Z,98103.28
2022-09-11T20:09:33.750Z,98094.13
2022-09-11T20:12:40.069Z,98095.31
2022-09-11T20:15:47.280Z,98101.72
2022-09-11T20:18:57.090Z,98102.78
2022-09-11T20:22:04.350Z,98107.44
2022-09-11T20:25:10.873Z,98109.56
2022-09-11T20:28:17.730Z,98111.69
2022-09-11T20:31:26.707Z,98104.94
2022-09-11T20:34:36.318Z,98103.50
2022-09-11T20:37:42.232Z,98108.34
2022-09-11T20:40:49.202Z,98109.59
2022-09-11T20:43:55.306Z,98110.56
2022-09-11T20:47:03.671Z,98109.00
2022-09-11T20:50:13.565Z,98105.84
2022-09-11T20:53:22.145Z,98104.34
2022-09-11T20:56:28.075Z,98105.41
2022-09-11T20:59:34.742Z,98107.31
2022-09-11T21:02:41.005Z,98100.47
2022-09-11T21:05:50.695Z,98105.84
2022-09-11T21:08:57.508Z,98106.91
2022-09-11T21:12:04.151Z,98100.81
2022-09-11T21:15:11.064Z,98095.53
2022-09-11T21:18:18.605Z,98095.53
2022-09-11T21:21:28.547Z,98104.38
2022-09-11T21:24:35.283Z,98097.41
2022-09-11T21:27:41.565Z,98100.16
2022-09-11T21:30:48.544Z,98094.91
2022-09-11T21:33:54.706Z,98097.00
2022-09-11T21:37:04.659Z,98108.59
2022-09-11T21:40:11.697Z,98101.75
2022-09-11T21:43:18.412Z,98103.72
2022-09-11T21:46:24.498Z,98105.63
2022-09-11T21:49:31.635Z,98103.94
2022-09-11T21:52:40.628Z,98109.19
2022-09-11T21:55:50.127Z,98107.75
2022-09-11T21:58:56.717Z,98104.38
2022-09-11T22:02:04.067Z,98103.69
2022-09-11T22:05:10.662Z,98102.84
2022-09-11T22:08:22.134Z,98097.81
2022-09-11T22:11:28.406Z,98100.66
2022-09-11T22:14:35.243Z,98104.22
2022-09-11T22:17:41.525Z,98104.34
2022-09-11T22:20:49.180Z,98108.94
2022-09-11T22:23:58.160Z,98110.66
2022-09-11T22:27:07.534Z,98118.63
2022-09-11T22:30:14.399Z,98125.56
2022-09-11T22:33:21.163Z,98123.03
2022-09-11T22:36:28.454Z,98126.63
2022-09-11T22:39:38.414Z,98126.63
2022-09-11T22:42:44.388Z,98125.13
2022-09-11T22:45:55.299Z,98121.56
2022-09-11T22:49:04.315Z,98127.56
2022-09-11T22:52:11.517Z,98123.25
2022-09-11T22:55:20.604Z,98130.84
2022-09-11T22:58:27.378Z,98138.59
2022-09-11T23:01:33.863Z,98129.78
2022-09-11T23:04:40.785Z,98127.88
2022-09-11T23:07:44.153Z,98124.31
2022-09-11T23:10:53.612Z,98132.41
2022-09-11T23:14:00.618Z,98121.97
2022-09-11T23:17:09.384Z,98131.88
2022-09-11T23:20:15.971Z,98125.88
2022-09-11T23:23:22.978Z,98128.72
2022-09-11T23:26:33.556Z,98125.34
2022-09-11T23:29:40.455Z,98130.03
2022-09-11T23:32:46.369Z,98125.03
2022-09-11T23:35:53.060Z,98125.94
2022-09-11T23:38:59.108Z,98122.59
2022-09-11T23:42:10.631Z,98121.84
2022-09-11T23:45:16.896Z,98116.69
2022-09-11T23:48:24.115Z,98121.09
2022-09-11T23:51:30.103Z,98119.44
2022-09-11T23:54:37.053Z,98122.97
2022-09-11T23:57:45.790Z,98121.31
